sensor_id;sensor_type;location;lat;lon;timestamp;P1;durP1;ratioP1;P2;durP2;ratioP2
18983;SDS011;9626;52.552;13.436;2022-12-18T00:01:05;39.47;;;18.67;;
18983;SDS011;9626;52.552;13.436;2022-12-18T00:03:39;41.33;;;17.77;;
18983;SDS011;9626;52.552;13.436;2022-12-18T00:06:05;42.50;;;18.70;;
18983;SDS011;9626;52.552;13.436;2022-12-18T00:08:31;41.77;;;18.43;;
18983;SDS011;9626;52.552;13.436;2022-12-18T00:11:02;41.93;;;19.40;;
18983;SDS011;9626;52.552;13.436;2022-12-18T00:13:30;42.80;;;19.03;;
18983;SDS011;9626;52.552;13.436;2022-12-18T00:16:01;46.83;;;19.10;;
18983;SDS011;9626;52.552;13.436;2022-12-18T00:18:28;43.07;;;17.43;;
18983;SDS011;9626;52.552;13.436;2022-12-18T00:20:54;48.10;;;19.50;;
18983;SDS011;9626;52.552;13.436;2022-12-18T00:23:24;41.43;;;18.90;;
18983;SDS011;9626;52.552;13.436;2022-12-18T00:25:50;39.43;;;17.63;;
18983;SDS011;9626;52.552;13.436;2022-12-18T00:28:16;36.67;;;17.83;;
18983;SDS011;9626;52.552;13.436;2022-12-18T00:30:42;37.50;;;17.33;;
18983;SDS011;9626;52.552;13.436;2022-12-18T00:33:08;36.90;;;17.90;;
18983;SDS011;9626;52.552;13.436;2022-12-18T00:35:34;41.63;;;18.67;;
18983;SDS011;9626;52.552;13.436;2022-12-18T00:38:00;39.43;;;17.80;;
18983;SDS011;9626;52.552;13.436;2022-12-18T00:40:27;35.60;;;16.77;;
18983;SDS011;9626;52.552;13.436;2022-12-18T00:42:53;38.50;;;17.27;;
18983;SDS011;9626;52.552;13.436;2022-12-18T00:45:25;41.40;;;18.97;;
18983;SDS011;9626;52.552;13.436;2022-12-18T00:47:52;40.17;;;18.07;;
18983;SDS011;9626;52.552;13.436;2022-12-18T00:50:19;41.37;;;17.23;;
18983;SDS011;9626;52.552;13.436;2022-12-18T00:52:46;43.20;;;18.77;;
18983;SDS011;9626;52.552;13.436;2022-12-18T00:55:12;43.20;;;19.10;;
18983;SDS011;9626;52.552;13.436;2022-12-18T00:57:38;42.83;;;17.23;;
18983;SDS011;9626;52.552;13.436;2022-12-18T01:00:05;43.23;;;17.93;;
18983;SDS011;9626;52.552;13.436;2022-12-18T01:02:34;40.70;;;18.10;;
18983;SDS011;9626;52.552;13.436;2022-12-18T01:05:00;39.03;;;18.47;;
18983;SDS011;9626;52.552;13.436;2022-12-18T01:07:26;34.33;;;15.70;;
18983;SDS011;9626;52.552;13.436;2022-12-18T01:09:52;38.43;;;17.27;;
18983;SDS011;9626;52.552;13.436;2022-12-18T01:12:18;37.73;;;16.23;;
18983;SDS011;9626;52.552;13.436;2022-12-18T01:14:46;34.20;;;16.03;;
18983;SDS011;9626;52.552;13.436;2022-12-18T01:17:16;41.53;;;15.23;;
18983;SDS011;9626;52.552;13.436;2022-12-18T01:19:42;35.67;;;14.77;;
18983;SDS011;9626;52.552;13.436;2022-12-18T01:22:08;34.17;;;14.43;;
18983;SDS011;9626;52.552;13.436;2022-12-18T01:24:34;33.97;;;15.47;;
18983;SDS011;9626;52.552;13.436;2022-12-18T01:27:00;32.70;;;16.27;;
18983;SDS011;9626;52.552;13.436;2022-12-18T01:29:26;39.17;;;16.20;;
18983;SDS011;9626;52.552;13.436;2022-12-18T01:31:54;35.13;;;15.97;;
18983;SDS011;9626;52.552;13.436;2022-12-18T01:34:21;35.03;;;15.77;;
18983;SDS011;9626;52.552;13.436;2022-12-18T01:36:47;37.90;;;18.00;;
18983;SDS011;9626;52.552;13.436;2022-12-18T01:39:14;43.77;;;17.77;;
18983;SDS011;9626;52.552;13.436;2022-12-18T01:41:40;41.43;;;18.60;;
18983;SDS011;9626;52.552;13.436;2022-12-18T01:47:37;41.13;;;18.27;;
18983;SDS011;9626;52.552;13.436;2022-12-18T01:50:19;36.20;;;15.53;;
18983;SDS011;9626;52.552;13.436;2022-12-18T01:53:10;30.53;;;13.27;;
18983;SDS011;9626;52.552;13.436;2022-12-18T01:55:41;31.13;;;14.50;;
18983;SDS011;9626;52.552;13.436;2022-12-18T01:58:10;35.07;;;15.43;;
18983;SDS011;9626;52.552;13.436;2022-12-18T02:00:36;40.27;;;16.20;;
18983;SDS011;9626;52.552;13.436;2022-12-18T02:03:02;40.23;;;16.90;;
18983;SDS011;9626;52.552;13.436;2022-12-18T02:05:32;37.70;;;17.20;;
18983;SDS011;9626;52.552;13.436;2022-12-18T02:08:40;42.40;;;19.37;;
18983;SDS011;9626;52.552;13.436;2022-12-18T02:14:00;39.93;;;17.60;;
18983;SDS011;9626;52.552;13.436;2022-12-18T02:19:33;46.43;;;19.30;;
18983;SDS011;9626;52.552;13.436;2022-12-18T02:27:54;50.07;;;20.13;;
18983;SDS011;9626;52.552;13.436;2022-12-18T02:30:23;51.70;;;20.03;;
18983;SDS011;9626;52.552;13.436;2022-12-18T02:32:50;49.90;;;20.90;;
18983;SDS011;9626;52.552;13.436;2022-12-18T02:35:20;49.93;;;20.63;;
18983;SDS011;9626;52.552;13.436;2022-12-18T02:37:53;59.97;;;22.60;;
18983;SDS011;9626;52.552;13.436;2022-12-18T02:40:20;52.00;;;21.53;;
18983;SDS011;9626;52.552;13.436;2022-12-18T02:49:10;60.10;;;24.03;;
18983;SDS011;9626;52.552;13.436;2022-12-18T02:54:37;70.03;;;26.13;;
18983;SDS011;9626;52.552;13.436;2022-12-18T02:57:38;61.53;;;25.30;;
18983;SDS011;9626;52.552;13.436;2022-12-18T03:00:12;70.17;;;25.63;;
18983;SDS011;9626;52.552;13.436;2022-12-18T03:05:25;74.60;;;27.30;;
18983;SDS011;9626;52.552;13.436;2022-12-18T03:08:06;76.30;;;28.53;;
18983;SDS011;9626;52.552;13.436;2022-12-18T03:10:38;75.53;;;29.33;;
18983;SDS011;9626;52.552;13.436;2022-12-18T03:13:12;67.67;;;25.37;;
18983;SDS011;9626;52.552;13.436;2022-12-18T03:15:44;63.90;;;24.10;;
18983;SDS011;9626;52.552;13.436;2022-12-18T03:18:24;70.17;;;27.67;;
18983;SDS011;9626;52.552;13.436;2022-12-18T03:20:56;70.67;;;28.77;;
18983;SDS011;9626;52.552;13.436;2022-12-18T03:23:27;77.90;;;28.30;;
18983;SDS011;9626;52.552;13.436;2022-12-18T03:25:56;78.63;;;30.47;;
18983;SDS011;9626;52.552;13.436;2022-12-18T03:28:24;75.60;;;29.10;;
18983;SDS011;9626;52.552;13.436;2022-12-18T03:30:56;65.60;;;26.60;;
18983;SDS011;9626;52.552;13.436;2022-12-18T03:33:27;74.63;;;26.50;;
18983;SDS011;9626;52.552;13.436;2022-12-18T03:35:57;65.77;;;27.10;;
18983;SDS011;9626;52.552;13.436;2022-12-18T03:38:23;57.83;;;23.10;;
18983;SDS011;9626;52.552;13.436;2022-12-18T03:43:54;60.87;;;23.30;;
18983;SDS011;9626;52.552;13.436;2022-12-18T03:46:30;54.50;;;23.70;;
18983;SDS011;9626;52.552;13.436;2022-12-18T03:49:11;56.77;;;24.00;;
18983;SDS011;9626;52.552;13.436;2022-12-18T03:52:06;52.30;;;22.63;;
18983;SDS011;9626;52.552;13.436;2022-12-18T03:54:33;43.37;;;19.30;;
18983;SDS011;9626;52.552;13.436;2022-12-18T03:57:15;46.17;;;19.03;;
18983;SDS011;9626;52.552;13.436;2022-12-18T03:59:45;40.50;;;18.67;;
18983;SDS011;9626;52.552;13.436;2022-12-18T04:02:16;44.50;;;18.27;;
18983;SDS011;9626;52.552;13.436;2022-12-18T04:04:42;47.30;;;18.50;;
18983;SDS011;9626;52.552;13.436;2022-12-18T04:07:12;48.73;;;20.13;;
18983;SDS011;9626;52.552;13.436;2022-12-18T04:09:39;45.43;;;19.80;;
18983;SDS011;9626;52.552;13.436;2022-12-18T04:12:08;52.67;;;20.17;;
18983;SDS011;9626;52.552;13.436;2022-12-18T04:14:34;42.90;;;19.73;;
18983;SDS011;9626;52.552;13.436;2022-12-18T04:17:01;43.10;;;20.27;;
18983;SDS011;9626;52.552;13.436;2022-12-18T04:19:28;43.50;;;17.73;;
18983;SDS011;9626;52.552;13.436;2022-12-18T04:21:54;40.23;;;16.93;;
18983;SDS011;9626;52.552;13.436;2022-12-18T04:24:20;41.87;;;17.00;;
18983;SDS011;9626;52.552;13.436;2022-12-18T04:26:46;45.80;;;18.73;;
18983;SDS011;9626;52.552;13.436;2022-12-18T04:29:12;51.13;;;20.03;;
18983;SDS011;9626;52.552;13.436;2022-12-18T04:31:38;43.33;;;18.00;;
18983;SDS011;9626;52.552;13.436;2022-12-18T04:34:04;47.80;;;19.37;;
18983;SDS011;9626;52.552;13.436;2022-12-18T04:36:30;47.80;;;19.83;;
18983;SDS011;9626;52.552;13.436;2022-12-18T04:38:56;44.23;;;18.70;;
18983;SDS011;9626;52.552;13.436;2022-12-18T04:41:22;43.90;;;18.43;;
18983;SDS011;9626;52.552;13.436;2022-12-18T04:43:48;40.17;;;16.53;;
18983;SDS011;9626;52.552;13.436;2022-12-18T04:46:14;37.17;;;16.60;;
18983;SDS011;9626;52.552;13.436;2022-12-18T04:48:40;39.63;;;17.93;;
18983;SDS011;9626;52.552;13.436;2022-12-18T04:51:06;39.97;;;18.33;;
18983;SDS011;9626;52.552;13.436;2022-12-18T04:53:33;41.73;;;19.30;;
18983;SDS011;9626;52.552;13.436;2022-12-18T04:58:35;39.37;;;15.70;;
18983;SDS011;9626;52.552;13.436;2022-12-18T05:01:02;38.30;;;16.40;;
18983;SDS011;9626;52.552;13.436;2022-12-18T05:03:29;38.20;;;17.47;;
18983;SDS011;9626;52.552;13.436;2022-12-18T05:05:55;33.63;;;16.33;;
18983;SDS011;9626;52.552;13.436;2022-12-18T05:08:22;40.77;;;17.83;;
18983;SDS011;9626;52.552;13.436;2022-12-18T05:10:47;37.90;;;17.03;;
18983;SDS011;9626;52.552;13.436;2022-12-18T05:13:14;39.47;;;17.37;;
18983;SDS011;9626;52.552;13.436;2022-12-18T05:15:40;38.83;;;16.67;;
18983;SDS011;9626;52.552;13.436;2022-12-18T05:18:07;38.17;;;16.27;;
18983;SDS011;9626;52.552;13.436;2022-12-18T05:20:34;38.60;;;17.37;;
18983;SDS011;9626;52.552;13.436;2022-12-18T05:23:00;38.47;;;16.43;;
18983;SDS011;9626;52.552;13.436;2022-12-18T05:25:26;41.93;;;17.67;;
18983;SDS011;9626;52.552;13.436;2022-12-18T05:27:52;43.87;;;17.50;;
18983;SDS011;9626;52.552;13.436;2022-12-18T05:30:18;37.97;;;16.70;;
18983;SDS011;9626;52.552;13.436;2022-12-18T05:32:44;39.57;;;15.23;;
18983;SDS011;9626;52.552;13.436;2022-12-18T05:35:10;38.60;;;16.03;;
18983;SDS011;9626;52.552;13.436;2022-12-18T05:37:36;40.07;;;17.60;;
18983;SDS011;9626;52.552;13.436;2022-12-18T05:40:04;42.70;;;16.57;;
18983;SDS011;9626;52.552;13.436;2022-12-18T05:42:30;47.37;;;17.50;;
18983;SDS011;9626;52.552;13.436;2022-12-18T05:44:56;47.40;;;18.37;;
18983;SDS011;9626;52.552;13.436;2022-12-18T05:47:22;49.03;;;18.73;;
18983;SDS011;9626;52.552;13.436;2022-12-18T05:49:48;45.37;;;17.30;;
18983;SDS011;9626;52.552;13.436;2022-12-18T05:52:14;46.60;;;18.70;;
18983;SDS011;9626;52.552;13.436;2022-12-18T05:54:40;43.23;;;18.63;;
18983;SDS011;9626;52.552;13.436;2022-12-18T05:57:06;43.27;;;18.43;;
18983;SDS011;9626;52.552;13.436;2022-12-18T05:59:32;48.57;;;18.07;;
18983;SDS011;9626;52.552;13.436;2022-12-18T06:01:58;50.63;;;18.27;;
18983;SDS011;9626;52.552;13.436;2022-12-18T06:04:26;50.57;;;19.27;;
18983;SDS011;9626;52.552;13.436;2022-12-18T06:06:53;43.50;;;17.50;;
18983;SDS011;9626;52.552;13.436;2022-12-18T06:09:19;50.47;;;19.53;;
18983;SDS011;9626;52.552;13.436;2022-12-18T06:11:45;48.87;;;19.37;;
18983;SDS011;9626;52.552;13.436;2022-12-18T06:14:11;47.43;;;18.33;;
18983;SDS011;9626;52.552;13.436;2022-12-18T06:16:37;54.67;;;21.53;;
18983;SDS011;9626;52.552;13.436;2022-12-18T06:19:03;51.17;;;19.00;;
18983;SDS011;9626;52.552;13.436;2022-12-18T06:21:30;53.87;;;21.43;;
18983;SDS011;9626;52.552;13.436;2022-12-18T06:23:57;55.00;;;20.47;;
18983;SDS011;9626;52.552;13.436;2022-12-18T06:26:23;50.47;;;22.00;;
18983;SDS011;9626;52.552;13.436;2022-12-18T06:28:50;57.03;;;22.13;;
18983;SDS011;9626;52.552;13.436;2022-12-18T06:31:16;54.53;;;22.40;;
18983;SDS011;9626;52.552;13.436;2022-12-18T06:33:42;55.07;;;22.90;;
18983;SDS011;9626;52.552;13.436;2022-12-18T06:36:09;54.07;;;20.47;;
18983;SDS011;9626;52.552;13.436;2022-12-18T06:38:37;58.53;;;22.33;;
18983;SDS011;9626;52.552;13.436;2022-12-18T06:41:13;59.67;;;23.07;;
18983;SDS011;9626;52.552;13.436;2022-12-18T06:43:40;57.47;;;23.43;;
18983;SDS011;9626;52.552;13.436;2022-12-18T06:46:07;57.97;;;21.90;;
18983;SDS011;9626;52.552;13.436;2022-12-18T06:48:34;52.60;;;21.70;;
18983;SDS011;9626;52.552;13.436;2022-12-18T06:51:00;56.07;;;23.63;;
18983;SDS011;9626;52.552;13.436;2022-12-18T06:53:27;54.83;;;23.67;;
18983;SDS011;9626;52.552;13.436;2022-12-18T06:55:59;57.53;;;24.13;;
18983;SDS011;9626;52.552;13.436;2022-12-18T06:58:28;56.40;;;23.50;;
18983;SDS011;9626;52.552;13.436;2022-12-18T07:00:59;51.17;;;20.67;;
18983;SDS011;9626;52.552;13.436;2022-12-18T07:03:29;53.33;;;21.40;;
18983;SDS011;9626;52.552;13.436;2022-12-18T07:05:56;50.67;;;20.03;;
18983;SDS011;9626;52.552;13.436;2022-12-18T07:08:22;43.07;;;18.40;;
18983;SDS011;9626;52.552;13.436;2022-12-18T07:10:48;45.87;;;20.00;;
18983;SDS011;9626;52.552;13.436;2022-12-18T07:13:17;49.57;;;21.03;;
18983;SDS011;9626;52.552;13.436;2022-12-18T07:15:43;51.13;;;21.97;;
18983;SDS011;9626;52.552;13.436;2022-12-18T07:18:09;53.97;;;22.13;;
18983;SDS011;9626;52.552;13.436;2022-12-18T07:20:35;56.83;;;20.80;;
18983;SDS011;9626;52.552;13.436;2022-12-18T07:23:02;54.20;;;20.10;;
18983;SDS011;9626;52.552;13.436;2022-12-18T07:25:36;52.30;;;19.53;;
18983;SDS011;9626;52.552;13.436;2022-12-18T07:28:03;48.13;;;20.00;;
18983;SDS011;9626;52.552;13.436;2022-12-18T07:30:30;52.97;;;19.87;;
18983;SDS011;9626;52.552;13.436;2022-12-18T07:32:56;44.40;;;17.37;;
18983;SDS011;9626;52.552;13.436;2022-12-18T07:35:21;54.33;;;20.60;;
18983;SDS011;9626;52.552;13.436;2022-12-18T07:37:47;46.13;;;18.93;;
18983;SDS011;9626;52.552;13.436;2022-12-18T07:40:14;48.33;;;19.30;;
18983;SDS011;9626;52.552;13.436;2022-12-18T07:42:40;55.87;;;21.97;;
18983;SDS011;9626;52.552;13.436;2022-12-18T07:45:06;54.50;;;22.20;;
18983;SDS011;9626;52.552;13.436;2022-12-18T07:47:35;48.67;;;20.30;;
18983;SDS011;9626;52.552;13.436;2022-12-18T07:50:02;47.57;;;19.10;;
18983;SDS011;9626;52.552;13.436;2022-12-18T07:52:29;44.33;;;20.33;;
18983;SDS011;9626;52.552;13.436;2022-12-18T07:54:58;49.23;;;20.10;;
18983;SDS011;9626;52.552;13.436;2022-12-18T07:57:24;50.20;;;20.63;;
18983;SDS011;9626;52.552;13.436;2022-12-18T07:59:50;46.80;;;18.17;;
18983;SDS011;9626;52.552;13.436;2022-12-18T08:02:16;51.03;;;20.20;;
18983;SDS011;9626;52.552;13.436;2022-12-18T08:04:42;59.50;;;22.27;;
18983;SDS011;9626;52.552;13.436;2022-12-18T08:07:08;48.07;;;19.50;;
18983;SDS011;9626;52.552;13.436;2022-12-18T08:09:34;55.27;;;21.67;;
18983;SDS011;9626;52.552;13.436;2022-12-18T08:12:00;52.97;;;20.17;;
18983;SDS011;9626;52.552;13.436;2022-12-18T08:14:26;48.57;;;20.20;;
18983;SDS011;9626;52.552;13.436;2022-12-18T08:16:53;51.10;;;21.50;;
18983;SDS011;9626;52.552;13.436;2022-12-18T08:19:18;49.37;;;19.10;;
18983;SDS011;9626;52.552;13.436;2022-12-18T08:21:44;43.40;;;19.50;;
18983;SDS011;9626;52.552;13.436;2022-12-18T08:24:11;44.50;;;19.07;;
18983;SDS011;9626;52.552;13.436;2022-12-18T08:26:37;41.87;;;19.17;;
18983;SDS011;9626;52.552;13.436;2022-12-18T08:29:03;43.33;;;17.67;;
18983;SDS011;9626;52.552;13.436;2022-12-18T08:31:29;44.13;;;18.13;;
18983;SDS011;9626;52.552;13.436;2022-12-18T08:33:56;40.73;;;17.83;;
18983;SDS011;9626;52.552;13.436;2022-12-18T08:36:23;44.43;;;18.27;;
18983;SDS011;9626;52.552;13.436;2022-12-18T08:38:49;39.80;;;17.47;;
18983;SDS011;9626;52.552;13.436;2022-12-18T08:41:16;42.17;;;17.80;;
18983;SDS011;9626;52.552;13.436;2022-12-18T08:43:43;38.90;;;18.10;;
18983;SDS011;9626;52.552;13.436;2022-12-18T08:46:31;36.53;;;15.97;;
18983;SDS011;9626;52.552;13.436;2022-12-18T08:49:00;36.60;;;16.40;;
18983;SDS011;9626;52.552;13.436;2022-12-18T08:51:26;39.10;;;17.67;;
18983;SDS011;9626;52.552;13.436;2022-12-18T08:53:52;40.83;;;18.43;;
18983;SDS011;9626;52.552;13.436;2022-12-18T08:56:18;36.70;;;15.83;;
18983;SDS011;9626;52.552;13.436;2022-12-18T08:58:44;42.37;;;18.03;;
18983;SDS011;9626;52.552;13.436;2022-12-18T09:01:10;38.90;;;17.20;;
18983;SDS011;9626;52.552;13.436;2022-12-18T09:03:37;40.83;;;16.87;;
18983;SDS011;9626;52.552;13.436;2022-12-18T09:06:04;44.30;;;17.80;;
18983;SDS011;9626;52.552;13.436;2022-12-18T09:08:30;44.30;;;17.77;;
18983;SDS011;9626;52.552;13.436;2022-12-18T09:10:56;37.27;;;17.90;;
18983;SDS011;9626;52.552;13.436;2022-12-18T09:13:22;41.00;;;17.70;;
18983;SDS011;9626;52.552;13.436;2022-12-18T09:15:49;39.93;;;17.87;;
18983;SDS011;9626;52.552;13.436;2022-12-18T09:18:18;42.93;;;18.57;;
18983;SDS011;9626;52.552;13.436;2022-12-18T09:20:45;38.80;;;16.37;;
18983;SDS011;9626;52.552;13.436;2022-12-18T09:23:12;40.33;;;17.87;;
18983;SDS011;9626;52.552;13.436;2022-12-18T09:25:38;42.33;;;19.17;;
18983;SDS011;9626;52.552;13.436;2022-12-18T09:28:05;37.87;;;16.27;;
18983;SDS011;9626;52.552;13.436;2022-12-18T09:30:39;40.13;;;17.17;;
18983;SDS011;9626;52.552;13.436;2022-12-18T09:33:06;41.33;;;16.97;;
18983;SDS011;9626;52.552;13.436;2022-12-18T09:35:32;38.63;;;18.17;;
18983;SDS011;9626;52.552;13.436;2022-12-18T09:38:01;45.47;;;20.17;;
18983;SDS011;9626;52.552;13.436;2022-12-18T09:40:28;45.83;;;19.40;;
18983;SDS011;9626;52.552;13.436;2022-12-18T09:43:01;45.43;;;19.97;;
18983;SDS011;9626;52.552;13.436;2022-12-18T09:45:38;37.47;;;18.43;;
18983;SDS011;9626;52.552;13.436;2022-12-18T09:48:10;41.43;;;19.17;;
18983;SDS011;9626;52.552;13.436;2022-12-18T09:50:45;39.87;;;16.87;;
18983;SDS011;9626;52.552;13.436;2022-12-18T09:53:17;41.30;;;19.10;;
18983;SDS011;9626;52.552;13.436;2022-12-18T09:55:48;45.90;;;18.97;;
18983;SDS011;9626;52.552;13.436;2022-12-18T10:01:01;41.23;;;17.40;;
18983;SDS011;9626;52.552;13.436;2022-12-18T10:03:27;42.13;;;18.97;;
18983;SDS011;9626;52.552;13.436;2022-12-18T10:06:07;41.63;;;17.83;;
18983;SDS011;9626;52.552;13.436;2022-12-18T10:08:42;42.87;;;19.20;;
18983;SDS011;9626;52.552;13.436;2022-12-18T10:16:50;46.53;;;20.17;;
18983;SDS011;9626;52.552;13.436;2022-12-18T10:19:47;47.47;;;19.87;;
18983;SDS011;9626;52.552;13.436;2022-12-18T10:24:53;50.20;;;19.50;;
18983;SDS011;9626;52.552;13.436;2022-12-18T10:27:27;48.77;;;17.90;;
18983;SDS011;9626;52.552;13.436;2022-12-18T10:29:54;49.07;;;18.53;;
18983;SDS011;9626;52.552;13.436;2022-12-18T10:32:22;48.43;;;19.83;;
18983;SDS011;9626;52.552;13.436;2022-12-18T10:34:51;47.17;;;20.13;;
18983;SDS011;9626;52.552;13.436;2022-12-18T10:37:23;43.70;;;19.37;;
18983;SDS011;9626;52.552;13.436;2022-12-18T10:42:40;48.43;;;21.33;;
18983;SDS011;9626;52.552;13.436;2022-12-18T10:45:14;43.53;;;19.83;;
18983;SDS011;9626;52.552;13.436;2022-12-18T10:47:50;51.17;;;21.40;;
18983;SDS011;9626;52.552;13.436;2022-12-18T10:53:03;52.50;;;20.87;;
18983;SDS011;9626;52.552;13.436;2022-12-18T10:55:34;49.67;;;19.93;;
18983;SDS011;9626;52.552;13.436;2022-12-18T11:01:02;48.60;;;19.63;;
18983;SDS011;9626;52.552;13.436;2022-12-18T11:03:33;50.07;;;21.27;;
18983;SDS011;9626;52.552;13.436;2022-12-18T11:06:16;54.80;;;21.77;;
18983;SDS011;9626;52.552;13.436;2022-12-18T11:11:32;44.73;;;20.57;;
18983;SDS011;9626;52.552;13.436;2022-12-18T11:14:05;43.93;;;19.57;;
18983;SDS011;9626;52.552;13.436;2022-12-18T11:16:47;47.53;;;20.03;;
18983;SDS011;9626;52.552;13.436;2022-12-18T11:19:27;51.00;;;21.50;;
18983;SDS011;9626;52.552;13.436;2022-12-18T11:21:57;43.43;;;19.27;;
18983;SDS011;9626;52.552;13.436;2022-12-18T11:24:29;40.43;;;18.67;;
18983;SDS011;9626;52.552;13.436;2022-12-18T11:27:00;43.63;;;18.60;;
18983;SDS011;9626;52.552;13.436;2022-12-18T11:29:35;44.50;;;20.47;;
18983;SDS011;9626;52.552;13.436;2022-12-18T11:34:53;41.60;;;17.83;;
18983;SDS011;9626;52.552;13.436;2022-12-18T11:37:42;41.57;;;19.03;;
18983;SDS011;9626;52.552;13.436;2022-12-18T11:40:14;41.40;;;19.03;;
18983;SDS011;9626;52.552;13.436;2022-12-18T11:42:51;39.30;;;18.67;;
18983;SDS011;9626;52.552;13.436;2022-12-18T11:45:27;38.97;;;17.73;;
18983;SDS011;9626;52.552;13.436;2022-12-18T11:48:03;40.70;;;18.47;;
18983;SDS011;9626;52.552;13.436;2022-12-18T11:50:53;41.63;;;18.60;;
18983;SDS011;9626;52.552;13.436;2022-12-18T11:53:21;42.70;;;17.13;;
18983;SDS011;9626;52.552;13.436;2022-12-18T11:59:05;35.57;;;17.03;;
18983;SDS011;9626;52.552;13.436;2022-12-18T12:15:18;33.70;;;16.27;;
18983;SDS011;9626;52.552;13.436;2022-12-18T12:23:20;40.10;;;17.47;;
18983;SDS011;9626;52.552;13.436;2022-12-18T12:25:59;41.83;;;17.93;;
18983;SDS011;9626;52.552;13.436;2022-12-18T12:58:53;35.03;;;14.30;;
18983;SDS011;9626;52.552;13.436;2022-12-18T13:06:55;30.40;;;14.37;;
18983;SDS011;9626;52.552;13.436;2022-12-18T13:13:09;36.90;;;16.10;;
18983;SDS011;9626;52.552;13.436;2022-12-18T13:18:26;28.07;;;14.43;;
18983;SDS011;9626;52.552;13.436;2022-12-18T13:25:49;34.43;;;17.17;;
18983;SDS011;9626;52.552;13.436;2022-12-18T13:28:16;35.30;;;16.27;;
18983;SDS011;9626;52.552;13.436;2022-12-18T13:30:53;35.27;;;15.73;;
18983;SDS011;9626;52.552;13.436;2022-12-18T13:36:26;32.17;;;15.73;;
18983;SDS011;9626;52.552;13.436;2022-12-18T13:39:08;39.17;;;18.10;;
18983;SDS011;9626;52.552;13.436;2022-12-18T13:41:36;33.53;;;15.53;;
18983;SDS011;9626;52.552;13.436;2022-12-18T13:46:52;32.70;;;15.47;;
18983;SDS011;9626;52.552;13.436;2022-12-18T13:52:03;32.40;;;16.73;;
18983;SDS011;9626;52.552;13.436;2022-12-18T13:54:42;34.70;;;18.00;;
18983;SDS011;9626;52.552;13.436;2022-12-18T14:02:44;35.53;;;18.23;;
18983;SDS011;9626;52.552;13.436;2022-12-18T14:08:10;31.00;;;16.97;;
18983;SDS011;9626;52.552;13.436;2022-12-18T14:10:43;36.40;;;17.80;;
18983;SDS011;9626;52.552;13.436;2022-12-18T14:13:15;33.37;;;17.90;;
18983;SDS011;9626;52.552;13.436;2022-12-18T14:15:47;30.97;;;17.27;;
18983;SDS011;9626;52.552;13.436;2022-12-18T14:20:59;30.00;;;18.40;;
18983;SDS011;9626;52.552;13.436;2022-12-18T14:28:55;28.10;;;14.83;;
18983;SDS011;9626;52.552;13.436;2022-12-18T14:31:24;29.80;;;16.10;;
18983;SDS011;9626;52.552;13.436;2022-12-18T14:33:52;36.17;;;16.63;;
18983;SDS011;9626;52.552;13.436;2022-12-18T14:36:20;31.20;;;16.90;;
18983;SDS011;9626;52.552;13.436;2022-12-18T14:38:49;37.40;;;17.67;;
18983;SDS011;9626;52.552;13.436;2022-12-18T14:41:20;27.97;;;14.77;;
18983;SDS011;9626;52.552;13.436;2022-12-18T14:43:47;26.43;;;14.53;;
18983;SDS011;9626;52.552;13.436;2022-12-18T14:49:24;29.87;;;15.30;;
18983;SDS011;9626;52.552;13.436;2022-12-18T14:52:17;30.30;;;15.57;;
18983;SDS011;9626;52.552;13.436;2022-12-18T14:54:49;27.37;;;14.87;;
18983;SDS011;9626;52.552;13.436;2022-12-18T14:57:22;31.93;;;16.93;;
18983;SDS011;9626;52.552;13.436;2022-12-18T14:59:50;29.73;;;16.67;;
18983;SDS011;9626;52.552;13.436;2022-12-18T15:02:23;29.07;;;15.97;;
18983;SDS011;9626;52.552;13.436;2022-12-18T15:05:02;31.37;;;16.57;;
18983;SDS011;9626;52.552;13.436;2022-12-18T15:07:43;26.23;;;14.07;;
18983;SDS011;9626;52.552;13.436;2022-12-18T15:10:21;27.17;;;15.03;;
18983;SDS011;9626;52.552;13.436;2022-12-18T15:12:50;26.23;;;14.87;;
18983;SDS011;9626;52.552;13.436;2022-12-18T15:17:59;28.03;;;14.17;;
18983;SDS011;9626;52.552;13.436;2022-12-18T15:20:27;26.33;;;15.13;;
18983;SDS011;9626;52.552;13.436;2022-12-18T15:22:53;28.10;;;15.03;;
18983;SDS011;9626;52.552;13.436;2022-12-18T15:25:32;29.73;;;15.13;;
18983;SDS011;9626;52.552;13.436;2022-12-18T15:28:02;32.67;;;15.70;;
18983;SDS011;9626;52.552;13.436;2022-12-18T15:30:29;27.20;;;14.23;;
18983;SDS011;9626;52.552;13.436;2022-12-18T15:35:43;26.60;;;14.63;;
18983;SDS011;9626;52.552;13.436;2022-12-18T15:38:09;27.03;;;16.00;;
18983;SDS011;9626;52.552;13.436;2022-12-18T15:40:35;29.80;;;14.80;;
18983;SDS011;9626;52.552;13.436;2022-12-18T15:43:01;23.87;;;14.03;;
18983;SDS011;9626;52.552;13.436;2022-12-18T15:45:49;25.33;;;15.03;;
18983;SDS011;9626;52.552;13.436;2022-12-18T15:48:18;25.43;;;14.00;;
18983;SDS011;9626;52.552;13.436;2022-12-18T15:50:47;32.13;;;15.50;;
18983;SDS011;9626;52.552;13.436;2022-12-18T15:53:13;23.73;;;12.97;;
18983;SDS011;9626;52.552;13.436;2022-12-18T15:55:39;22.87;;;12.80;;
18983;SDS011;9626;52.552;13.436;2022-12-18T15:58:24;41.03;;;17.00;;
18983;SDS011;9626;52.552;13.436;2022-12-18T16:00:50;27.27;;;13.63;;
18983;SDS011;9626;52.552;13.436;2022-12-18T16:03:24;21.67;;;12.60;;
18983;SDS011;9626;52.552;13.436;2022-12-18T16:05:53;27.47;;;14.53;;
18983;SDS011;9626;52.552;13.436;2022-12-18T16:08:19;28.60;;;13.50;;
18983;SDS011;9626;52.552;13.436;2022-12-18T16:10:45;22.03;;;13.30;;
18983;SDS011;9626;52.552;13.436;2022-12-18T16:13:12;25.90;;;14.37;;
18983;SDS011;9626;52.552;13.436;2022-12-18T16:15:43;25.30;;;13.60;;
18983;SDS011;9626;52.552;13.436;2022-12-18T16:18:09;25.20;;;13.77;;
18983;SDS011;9626;52.552;13.436;2022-12-18T16:20:36;28.40;;;13.97;;
18983;SDS011;9626;52.552;13.436;2022-12-18T16:23:04;28.13;;;15.07;;
18983;SDS011;9626;52.552;13.436;2022-12-18T16:25:30;33.13;;;15.47;;
18983;SDS011;9626;52.552;13.436;2022-12-18T16:27:56;28.53;;;14.83;;
18983;SDS011;9626;52.552;13.436;2022-12-18T16:30:24;29.77;;;16.20;;
18983;SDS011;9626;52.552;13.436;2022-12-18T16:32:53;29.13;;;15.73;;
18983;SDS011;9626;52.552;13.436;2022-12-18T16:35:22;26.83;;;14.20;;
18983;SDS011;9626;52.552;13.436;2022-12-18T16:37:49;25.57;;;14.37;;
18983;SDS011;9626;52.552;13.436;2022-12-18T16:40:17;26.60;;;14.13;;
18983;SDS011;9626;52.552;13.436;2022-12-18T16:42:44;29.20;;;15.53;;
18983;SDS011;9626;52.552;13.436;2022-12-18T16:45:12;25.77;;;14.70;;
18983;SDS011;9626;52.552;13.436;2022-12-18T16:47:40;29.50;;;15.27;;
18983;SDS011;9626;52.552;13.436;2022-12-18T16:50:07;27.03;;;15.37;;
18983;SDS011;9626;52.552;13.436;2022-12-18T16:52:34;29.77;;;15.57;;
18983;SDS011;9626;52.552;13.436;2022-12-18T16:55:00;27.33;;;14.77;;
18983;SDS011;9626;52.552;13.436;2022-12-18T16:57:26;33.77;;;15.63;;
18983;SDS011;9626;52.552;13.436;2022-12-18T16:59:52;28.00;;;15.27;;
18983;SDS011;9626;52.552;13.436;2022-12-18T17:02:19;27.27;;;14.53;;
18983;SDS011;9626;52.552;13.436;2022-12-18T17:04:48;26.27;;;14.50;;
18983;SDS011;9626;52.552;13.436;2022-12-18T17:07:14;30.93;;;17.73;;
18983;SDS011;9626;52.552;13.436;2022-12-18T17:09:41;27.67;;;15.53;;
18983;SDS011;9626;52.552;13.436;2022-12-18T17:12:07;27.67;;;15.77;;
18983;SDS011;9626;52.552;13.436;2022-12-18T17:14:34;31.47;;;15.67;;